createdAt,value
2022-11-21T00:00:24.310Z,47.15
2022-11-21T00:03:03.035Z,49.95
2022-11-21T00:05:31.451Z,55.10
2022-11-21T00:07:59.111Z,57.20
2022-11-21T00:10:26.736Z,59.22
2022-11-21T00:12:57.622Z,53.65
2022-11-21T00:15:26.155Z,60.45
2022-11-21T00:21:11.354Z,48.67
2022-11-21T00:23:40.805Z,48.10
2022-11-21T00:26:09.177Z,44.03
2022-11-21T00:28:36.789Z,40.05
2022-11-21T00:31:05.038Z,41.78
2022-11-21T00:33:34.510Z,41.63
2022-11-21T00:36:06.026Z,39.03
2022-11-21T00:38:33.468Z,40.47
2022-11-21T00:41:01.173Z,35.88
2022-11-21T00:43:29.849Z,34.72
2022-11-21T00:45:57.717Z,39.22
2022-11-21T00:48:25.164Z,35.70
2022-11-21T00:51:00.211Z,33.42
2022-11-21T00:53:27.951Z,33.58
2022-11-21T00:55:55.647Z,37.60
2022-11-21T00:58:23.075Z,33.03
2022-11-21T01:00:50.805Z,45.50
2022-11-21T01:03:18.207Z,32.35
2022-11-21T01:05:45.849Z,32.55
2022-11-21T01:08:13.210Z,32.80
2022-11-21T01:10:40.933Z,32.25
2022-11-21T01:13:08.417Z,32.72
2022-11-21T01:15:36.092Z,28.65
2022-11-21T01:18:03.553Z,30.92
2022-11-21T01:20:31.255Z,34.38
2022-11-21T01:23:06.605Z,31.73
2022-11-21T01:25:34.656Z,31.95
2022-11-21T01:28:02.035Z,32.90
2022-11-21T01:30:29.705Z,31.63
2022-11-21T01:32:57.153Z,30.48
2022-11-21T01:35:43.373Z,28.75
2022-11-21T01:38:29.119Z,33.78
2022-11-21T01:41:17.336Z,32.50
2022-11-21T01:43:44.726Z,26.80
2022-11-21T01:46:13.786Z,27.65
2022-11-21T01:48:59.789Z,26.65
2022-11-21T01:51:39.481Z,25.50
2022-11-21T01:54:06.876Z,29.35
2022-11-21T01:56:37.712Z,25.35
2022-11-21T01:59:06.859Z,26.00
2022-11-21T02:01:35.021Z,31.55
2022-11-21T02:04:02.902Z,28.98
2022-11-21T02:06:31.342Z,29.38
2022-11-21T02:09:00.020Z,29.45
2022-11-21T02:11:31.419Z,31.38
2022-11-21T02:13:59.771Z,30.35
2022-11-21T02:16:27.756Z,26.13
2022-11-21T02:18:55.121Z,26.67
2022-11-21T02:21:25.553Z,24.92
2022-11-21T02:24:09.239Z,27.00
2022-11-21T02:26:37.670Z,24.60
2022-11-21T02:29:05.069Z,26.42
2022-11-21T02:31:32.795Z,29.08
2022-11-21T02:34:00.146Z,27.40
2022-11-21T02:36:36.806Z,27.25
2022-11-21T02:39:05.450Z,25.27
2022-11-21T02:41:35.179Z,25.77
2022-11-21T02:44:05.620Z,26.33
2022-11-21T02:46:34.797Z,26.17
2022-11-21T02:49:04.534Z,24.60
2022-11-21T02:55:14.284Z,25.13
2022-11-21T02:57:42.344Z,22.40
2022-11-21T03:00:10.222Z,23.13
2022-11-21T03:05:51.520Z,24.80
2022-11-21T03:08:38.371Z,21.80
2022-11-21T03:22:02.577Z,24.27
2022-11-21T03:35:19.032Z,23.05
2022-11-21T03:40:16.941Z,22.60
2022-11-21T03:47:41.118Z,23.63
2022-11-21T03:55:05.304Z,22.20
2022-11-21T04:00:01.033Z,24.58
2022-11-21T04:07:24.944Z,22.10
2022-11-21T04:09:52.624Z,22.50
2022-11-21T04:23:17.044Z,24.65
2022-11-21T04:25:44.522Z,24.90
2022-11-21T04:28:12.519Z,24.00
2022-11-21T04:30:39.930Z,26.13
2022-11-21T04:33:07.833Z,25.10
2022-11-21T04:35:35.362Z,26.52
2022-11-21T04:38:03.052Z,27.38
2022-11-21T04:40:30.483Z,27.92
2022-11-21T04:42:58.144Z,25.10
2022-11-21T04:45:25.538Z,26.05
2022-11-21T04:47:53.295Z,25.13
2022-11-21T04:52:50.491Z,23.85
2022-11-21T04:58:23.171Z,24.27
2022-11-21T05:00:50.685Z,24.63
2022-11-21T05:03:18.371Z,23.50
2022-11-21T05:05:46.121Z,25.35
2022-11-21T05:08:13.807Z,24.40
2022-11-21T05:10:41.251Z,23.50
2022-11-21T05:13:09.647Z,23.08
2022-11-21T05:15:37.083Z,23.20
2022-11-21T05:18:04.838Z,23.42
2022-11-21T05:20:36.615Z,23.40
2022-11-21T05:25:32.023Z,22.05
2022-11-21T05:28:02.763Z,22.85
2022-11-21T05:30:30.750Z,22.17
2022-11-21T05:32:58.945Z,22.92
2022-11-21T05:35:26.804Z,21.35
2022-11-21T05:37:58.676Z,20.98
2022-11-21T05:40:26.818Z,20.90
2022-11-21T05:42:55.036Z,21.55
2022-11-21T05:45:22.944Z,19.88
2022-11-21T05:47:51.176Z,22.15
2022-11-21T05:50:19.145Z,21.40
2022-11-21T05:52:47.281Z,18.55
2022-11-21T05:55:15.259Z,20.58
2022-11-21T05:57:43.741Z,21.77
2022-11-21T06:00:12.153Z,19.40
2022-11-21T06:02:40.451Z,21.05
2022-11-21T06:05:08.777Z,21.23
2022-11-21T06:07:37.076Z,19.88
2022-11-21T06:10:05.416Z,20.33
2022-11-21T06:12:33.528Z,20.40
2022-11-21T06:15:01.461Z,20.35
2022-11-21T06:17:29.653Z,20.65
2022-11-21T06:19:57.558Z,20.63
2022-11-21T06:22:25.773Z,22.00
2022-11-21T06:24:53.641Z,19.67
2022-11-21T06:27:21.918Z,19.25
2022-11-21T06:29:49.779Z,20.33
2022-11-21T06:32:18.372Z,19.10
2022-11-21T06:34:46.309Z,20.55
2022-11-21T06:37:14.464Z,19.13
2022-11-21T06:39:42.325Z,19.52
2022-11-21T06:42:10.559Z,19.42
2022-11-21T06:44:38.528Z,19.50
2022-11-21T06:47:06.795Z,17.90
2022-11-21T06:49:34.707Z,19.25
2022-11-21T06:52:02.922Z,18.70
2022-11-21T06:54:31.111Z,17.83
2022-11-21T06:56:59.537Z,18.20
2022-11-21T06:59:27.454Z,17.98
2022-11-21T07:05:33.769Z,19.25
2022-11-21T07:08:02.893Z,18.58
2022-11-21T07:10:31.226Z,16.30
2022-11-21T07:13:00.944Z,18.35
2022-11-21T07:15:28.816Z,28.85
2022-11-21T07:21:50.509Z,18.23
2022-11-21T07:24:18.671Z,18.40
2022-11-21T07:26:46.599Z,18.98
2022-11-21T07:29:14.819Z,17.17
2022-11-21T07:31:55.694Z,17.50
2022-11-21T07:34:23.923Z,17.00
2022-11-21T07:36:51.819Z,17.10
2022-11-21T07:39:20.013Z,18.17
2022-11-21T07:41:48.049Z,16.50
2022-11-21T07:44:16.492Z,15.05
2022-11-21T07:46:44.380Z,18.25
2022-11-21T07:49:12.625Z,16.85
2022-11-21T07:51:40.569Z,17.73
2022-11-21T07:54:08.810Z,16.73
2022-11-21T07:56:36.774Z,15.13
2022-11-21T07:59:05.080Z,16.27
2022-11-21T08:01:33.047Z,15.80
2022-11-21T08:04:01.315Z,16.45
2022-11-21T08:06:29.183Z,15.98
2022-11-21T08:08:57.352Z,16.02
2022-11-21T08:11:25.270Z,15.30
2022-11-21T08:13:53.456Z,16.67
2022-11-21T08:16:21.359Z,17.35
2022-11-21T08:18:49.623Z,18.08
2022-11-21T08:21:20.051Z,18.17
2022-11-21T08:23:48.793Z,22.92
2022-11-21T08:26:16.866Z,20.73
2022-11-21T08:28:45.131Z,20.38
2022-11-21T08:31:13.066Z,29.90
2022-11-21T08:33:41.280Z,15.55
2022-11-21T08:36:09.429Z,13.43
2022-11-21T08:38:37.702Z,11.57
2022-11-21T08:41:05.613Z,10.35
2022-11-21T08:43:33.810Z,10.48
2022-11-21T08:46:01.808Z,9.52
2022-11-21T08:48:30.077Z,10.73
2022-11-21T08:50:57.996Z,10.65
2022-11-21T08:53:26.383Z,11.13
2022-11-21T08:55:54.756Z,10.45
2022-11-21T08:58:23.090Z,12.68
2022-11-21T09:00:51.049Z,10.27
2022-11-21T09:03:23.630Z,10.05
2022-11-21T09:05:59.643Z,10.07
2022-11-21T09:08:29.604Z,9.95
2022-11-21T09:10:57.580Z,9.82
2022-11-21T09:13:27.389Z,8.95
2022-11-21T09:15:55.316Z,8.43
2022-11-21T09:18:23.644Z,8.57
2022-11-21T09:20:54.581Z,10.18
2022-11-21T09:23:22.758Z,8.90
2022-11-21T09:25:50.621Z,8.43
2022-11-21T09:28:18.957Z,8.20
2022-11-21T09:30:46.876Z,8.70
2022-11-21T09:33:16.376Z,9.68
2022-11-21T09:35:45.059Z,9.32
2022-11-21T09:38:13.344Z,10.40
2022-11-21T09:40:45.712Z,8.82
2022-11-21T09:43:19.574Z,9.93
2022-11-21T09:45:52.527Z,8.35
2022-11-21T09:48:30.199Z,9.27
2022-11-21T09:51:05.576Z,10.23
2022-11-21T09:54:02.241Z,10.07
2022-11-21T09:56:37.052Z,8.18
2022-11-21T09:59:08.073Z,8.77
2022-11-21T10:01:38.650Z,8.60
2022-11-21T10:04:06.970Z,8.07
2022-11-21T10:07:06.149Z,8.15
2022-11-21T10:10:01.789Z,7.90
2022-11-21T10:12:44.201Z,8.15
2022-11-21T10:15:22.508Z,7.53
2022-11-21T10:18:08.640Z,8.73
2022-11-21T10:21:24.009Z,8.90
2022-11-21T10:23:54.607Z,7.93
2022-11-21T10:26:43.295Z,7.97
2022-11-21T10:29:22.346Z,17.60
2022-11-21T10:31:52.441Z,10.13
2022-11-21T10:34:25.826Z,14.55
2022-11-21T10:37:06.399Z,7.97
2022-11-21T10:40:16.081Z,6.10
2022-11-21T10:43:20.193Z,6.13
2022-11-21T10:45:49.972Z,5.40
2022-11-21T10:48:18.452Z,5.03
2022-11-21T10:51:18.479Z,5.65
2022-11-21T10:53:49.611Z,4.80
2022-11-21T10:56:25.201Z,6.32
2022-11-21T10:58:58.038Z,5.75
2022-11-21T11:01:34.381Z,6.63
2022-11-21T11:08:28.415Z,5.50
2022-11-21T11:11:04.481Z,5.63
2022-11-21T11:13:49.456Z,5.50
2022-11-21T11:16:18.980Z,5.88
2022-11-21T11:18:47.792Z,5.70
2022-11-21T11:21:20.439Z,4.70
2022-11-21T11:23:49.513Z,6.57
2022-11-21T11:26:19.934Z,7.18
2022-11-21T11:28:47.922Z,5.82
2022-11-21T11:31:15.793Z,7.68
2022-11-21T11:33:50.143Z,7.57
2022-11-21T11:36:53.346Z,6.03
2022-11-21T11:39:36.106Z,5.93
2022-11-21T11:42:03.781Z,7.57
2022-11-21T11:44:41.405Z,8.10
2022-11-21T11:47:16.247Z,6.28
2022-11-21T11:49:47.945Z,6.70
2022-11-21T11:52:15.864Z,15.00
2022-11-21T11:54:48.325Z,15.65
2022-11-21T11:57:19.792Z,12.90
2022-11-21T11:59:49.393Z,13.13
2022-11-21T12:02:33.688Z,11.18
2022-11-21T12:05:09.264Z,8.52
2022-11-21T12:10:34.199Z,14.32
2022-11-21T12:13:06.649Z,5.85
2022-11-21T12:15:47.137Z,5.60
2022-11-21T12:18:17.441Z,6.15
2022-11-21T12:20:47.856Z,5.80
2022-11-21T12:23:15.725Z,7.68
2022-11-21T12:25:53.845Z,6.57
2022-11-21T12:28:41.780Z,4.68
2022-11-21T12:31:28.139Z,4.40
2022-11-21T12:34:09.658Z,4.93
2022-11-21T12:36:55.699Z,5.20
2022-11-21T12:39:26.414Z,5.03
2022-11-21T12:42:03.481Z,5.75
2022-11-21T12:44:43.554Z,6.18
2022-11-21T12:47:17.221Z,6.28
2022-11-21T12:50:08.152Z,7.35
2022-11-21T12:52:44.316Z,7.57
2022-11-21T12:55:19.648Z,7.38
2022-11-21T12:58:05.179Z,8.07
2022-11-21T13:00:38.640Z,7.65
2022-11-21T13:03:29.150Z,7.97
2022-11-21T13:05:57.874Z,7.85
2022-11-21T13:08:26.866Z,8.80
2022-11-21T13:11:03.584Z,8.85
2022-11-21T13:13:33.202Z,9.25
2022-11-21T13:19:35.873Z,9.48
2022-11-21T13:22:03.586Z,8.60
2022-11-21T13:24:47.210Z,8.48
2022-11-21T13:27:38.540Z,9.00
2022-11-21T13:30:06.682Z,7.65
2022-11-21T13:32:37.564Z,7.60
2022-11-21T13:35:19.945Z,7.75
2022-11-21T13:37:50.383Z,7.07
2022-11-21T13:40:26.726Z,7.10
2022-11-21T13:43:31.396Z,6.25
2022-11-21T13:45:54.440Z,6.13
2022-11-21T13:55:16.315Z,5.95
2022-11-21T13:57:46.832Z,6.15
2022-11-21T14:00:20.049Z,7.18
2022-11-21T14:02:53.534Z,7.45
2022-11-21T14:05:35.330Z,6.03
2022-11-21T14:08:22.608Z,6.78
2022-11-21T14:10:51.349Z,7.38
2022-11-21T14:13:21.585Z,7.32
2022-11-21T14:15:58.067Z,6.68
2022-11-21T14:18:25.860Z,7.00
2022-11-21T14:20:53.716Z,6.43
2022-11-21T14:23:22.337Z,7.75
2022-11-21T14:25:53.056Z,7.35
2022-11-21T14:28:26.756Z,7.80
2022-11-21T14:30:58.625Z,7.80
2022-11-21T14:33:35.958Z,7.10
2022-11-21T14:36:05.415Z,7.43
2022-11-21T14:38:34.980Z,7.35
2022-11-21T14:41:31.673Z,7.05
2022-11-21T14:43:59.021Z,8.00
2022-11-21T14:46:36.466Z,8.20
2022-11-21T14:49:16.059Z,7.90
2022-11-21T14:52:02.390Z,8.65
2022-11-21T14:54:31.906Z,9.00
2022-11-21T14:57:01.831Z,8.85
2022-11-21T14:59:29.268Z,8.88
2022-11-21T15:01:58.926Z,8.85
2022-11-21T15:04:28.145Z,9.88
2022-11-21T15:06:56.174Z,9.65
2022-11-21T15:12:11.812Z,10.70
2022-11-21T15:14:42.598Z,11.70
2022-11-21T15:17:16.128Z,11.90
2022-11-21T15:19:43.812Z,12.13
2022-11-21T15:22:26.119Z,12.43
2022-11-21T15:25:05.547Z,12.57
2022-11-21T15:31:16.299Z,13.10
2022-11-21T15:34:12.584Z,13.60
2022-11-21T15:40:03.599Z,11.73
2022-11-21T15:42:31.181Z,12.70
2022-11-21T15:45:03.091Z,12.18
2022-11-21T15:47:30.703Z,11.60
2022-11-21T15:49:58.256Z,11.45
2022-11-21T15:52:25.900Z,12.93
2022-11-21T15:54:53.330Z,12.70
2022-11-21T15:59:53.269Z,11.75
2022-11-21T16:02:20.931Z,11.68
2022-11-21T16:04:49.480Z,10.73
2022-11-21T16:07:17.411Z,11.05
2022-11-21T16:09:44.922Z,11.75
2022-11-21T16:12:12.635Z,11.65
2022-11-21T16:14:40.028Z,12.73
2022-11-21T16:17:08.070Z,13.07
2022-11-21T16:19:53.802Z,12.52
2022-11-21T16:22:21.420Z,11.05
2022-11-21T16:24:57.059Z,11.93
2022-11-21T16:27:24.760Z,11.75
2022-11-21T16:29:52.134Z,11.45
2022-11-21T16:32:19.958Z,12.05
2022-11-21T16:34:48.252Z,10.88
2022-11-21T16:37:15.939Z,10.77
2022-11-21T16:39:43.467Z,11.93
2022-11-21T16:42:11.173Z,9.63
2022-11-21T16:44:38.556Z,9.45
2022-11-21T16:47:08.534Z,10.35
2022-11-21T16:49:36.556Z,9.98
2022-11-21T16:52:04.163Z,8.93
2022-11-21T16:54:31.668Z,9.07
2022-11-21T16:56:59.579Z,9.30
2022-11-21T16:59:27.359Z,9.02
2022-11-21T17:01:55.280Z,8.68
2022-11-21T17:04:22.627Z,8.40
2022-11-21T17:06:50.291Z,8.18
2022-11-21T17:09:17.658Z,10.20
2022-11-21T17:11:45.304Z,8.25
2022-11-21T17:14:12.978Z,8.77
2022-11-21T17:16:40.799Z,9.50
2022-11-21T17:19:10.668Z,9.23
2022-11-21T17:21:38.344Z,8.75
2022-11-21T17:24:05.908Z,8.82
2022-11-21T17:26:35.420Z,9.38
2022-11-21T17:29:02.792Z,9.90
2022-11-21T17:31:31.122Z,9.05
2022-11-21T17:33:59.191Z,9.63
2022-11-21T17:39:59.231Z,10.43
2022-11-21T17:42:27.046Z,11.45
2022-11-21T17:44:54.391Z,9.88
2022-11-21T17:47:22.033Z,10.85
2022-11-21T17:49:49.375Z,11.40
2022-11-21T17:52:17.079Z,11.13
2022-11-21T17:54:44.535Z,9.43
2022-11-21T17:57:12.252Z,9.70
2022-11-21T18:03:06.809Z,10.38
2022-11-21T18:05:34.150Z,9.93
2022-11-21T18:08:01.800Z,11.45
2022-11-21T18:10:42.647Z,10.38
2022-11-21T18:13:11.280Z,10.65
2022-11-21T18:15:38.648Z,10.10
2022-11-21T18:18:06.417Z,10.65
2022-11-21T18:20:33.762Z,11.00
2022-11-21T18:23:01.443Z,10.05
2022-11-21T18:25:28.874Z,10.88
2022-11-21T18:27:56.698Z,10.27
2022-11-21T18:30:24.054Z,10.43
2022-11-21T18:32:51.741Z,10.20
2022-11-21T18:35:19.121Z,10.48
2022-11-21T18:37:47.007Z,10.80
2022-11-21T18:40:14.493Z,11.05
2022-11-21T18:42:42.178Z,10.98
2022-11-21T18:45:09.791Z,10.77
2022-11-21T18:47:37.595Z,10.98
2022-11-21T18:50:05.366Z,11.07
2022-11-21T18:52:33.071Z,11.10
2022-11-21T18:55:00.477Z,11.27
2022-11-21T18:57:28.183Z,10.07
2022-11-21T18:59:55.756Z,11.88
2022-11-21T19:02:23.426Z,10.50
2022-11-21T19:04:50.917Z,11.38
2022-11-21T19:07:18.750Z,11.70
2022-11-21T19:09:46.257Z,10.05
2022-11-21T19:12:14.023Z,9.43
2022-11-21T19:14:41.423Z,9.60
2022-11-21T19:17:09.071Z,8.10
2022-11-21T19:19:36.469Z,9.57
2022-11-21T19:22:04.164Z,8.00
2022-11-21T19:24:31.596Z,8.43
2022-11-21T19:26:59.356Z,9.05
2022-11-21T19:29:27.067Z,9.02
2022-11-21T19:31:54.993Z,8.73
2022-11-21T19:34:22.424Z,10.05
2022-11-21T19:36:50.228Z,9.25
2022-11-21T19:39:17.624Z,9.07
2022-11-21T19:41:47.607Z,9.02
2022-11-21T19:44:15.060Z,9.60
2022-11-21T19:46:42.780Z,11.57
2022-11-21T19:49:10.924Z,11.93
2022-11-21T19:51:40.347Z,12.05
2022-11-21T19:54:08.819Z,11.02
2022-11-21T19:56:36.908Z,12.48
2022-11-21T19:59:04.544Z,17.48
2022-11-21T20:01:33.098Z,21.27
2022-11-21T20:04:01.966Z,17.17
2022-11-21T20:06:29.680Z,19.55
2022-11-21T20:09:00.937Z,23.23
2022-11-21T20:11:29.491Z,18.37
2022-11-21T20:13:57.348Z,15.43
2022-11-21T20:16:26.405Z,16.25
2022-11-21T20:18:54.419Z,18.38
2022-11-21T20:21:22.191Z,12.65
2022-11-21T20:23:49.566Z,13.80
2022-11-21T20:26:18.136Z,16.88
2022-11-21T20:28:45.588Z,15.55
2022-11-21T20:31:17.486Z,21.48
2022-11-21T20:33:46.268Z,18.65
2022-11-21T20:36:17.993Z,25.35
2022-11-21T20:38:49.743Z,23.23
2022-11-21T20:41:17.926Z,21.50
2022-11-21T20:44:27.362Z,20.10
2022-11-21T20:46:33.390Z,13.18
2022-11-21T20:49:01.086Z,13.95
2022-11-21T20:54:16.117Z,14.35
2022-11-21T20:56:44.566Z,14.55
2022-11-21T20:59:12.174Z,13.68
2022-11-21T21:01:40.003Z,12.52
2022-11-21T21:04:07.473Z,19.25
2022-11-21T21:06:35.297Z,16.30
2022-11-21T21:09:02.708Z,28.23
2022-11-21T21:11:50.965Z,28.33
2022-11-21T21:14:17.687Z,25.13
2022-11-21T21:16:45.340Z,23.30
2022-11-21T21:19:12.711Z,22.58
2022-11-21T21:21:40.484Z,19.88
2022-11-21T21:24:08.747Z,20.90
2022-11-21T21:26:42.173Z,20.15
2022-11-21T21:29:11.098Z,20.90
2022-11-21T21:31:38.842Z,24.00
2022-11-21T21:34:06.248Z,24.15
2022-11-21T21:36:34.017Z,18.70
2022-11-21T21:39:01.737Z,20.50
2022-11-21T21:41:30.231Z,18.30
2022-11-21T21:43:57.989Z,21.05
2022-11-21T21:46:26.484Z,19.15
2022-11-21T21:48:54.754Z,18.55
2022-11-21T21:51:26.307Z,16.10
2022-11-21T21:53:54.226Z,17.55
2022-11-21T21:56:22.780Z,20.15
2022-11-21T21:58:50.684Z,18.38
2022-11-21T22:01:19.499Z,19.25
2022-11-21T22:03:47.442Z,20.40
2022-11-21T22:06:47.355Z,21.92
2022-11-21T22:09:14.857Z,25.10
2022-11-21T22:11:42.548Z,29.95
2022-11-21T22:14:14.723Z,35.30
2022-11-21T22:16:43.282Z,20.25
2022-11-21T22:19:10.809Z,20.83
2022-11-21T22:21:39.118Z,20.05
2022-11-21T22:24:29.237Z,22.98
2022-11-21T22:26:56.982Z,21.73
2022-11-21T22:29:24.431Z,22.48
2022-11-21T22:31:52.138Z,26.50
2022-11-21T22:34:19.545Z,29.50
2022-11-21T22:36:47.267Z,36.80
2022-11-21T22:39:15.234Z,30.08
2022-11-21T22:41:42.935Z,28.55
2022-11-21T22:44:10.340Z,25.38
2022-11-21T22:46:38.112Z,24.85
2022-11-21T22:49:05.507Z,21.50
2022-11-21T22:51:33.188Z,25.52
2022-11-21T22:54:00.639Z,23.88
2022-11-21T22:56:28.506Z,20.85
2022-11-21T22:58:55.908Z,20.40
2022-11-21T23:01:24.858Z,17.70
2022-11-21T23:03:52.855Z,19.80
2022-11-21T23:06:21.711Z,17.92
2022-11-21T23:08:49.588Z,16.10
2022-11-21T23:11:21.029Z,19.23
2022-11-21T23:13:48.912Z,22.45
2022-11-21T23:16:17.212Z,19.13
2022-11-21T23:18:44.899Z,21.13
2022-11-21T23:21:13.004Z,22.05
2022-11-21T23:23:40.732Z,17.30
2022-11-21T23:26:08.438Z,14.48
2022-11-21T23:28:35.840Z,12.65
2022-11-21T23:31:03.567Z,15.07
2022-11-21T23:33:30.966Z,15.90
2022-11-21T23:35:58.711Z,18.55
2022-11-21T23:38:26.166Z,14.32
2022-11-21T23:40:53.902Z,18.85
2022-11-21T23:43:21.296Z,16.55
2022-11-21T23:45:52.355Z,15.73
2022-11-21T23:48:19.926Z,15.75
2022-11-21T23:50:48.296Z,17.23
2022-11-21T23:53:15.638Z,17.98
2022-11-21T23:55:43.984Z,16.42
2022-11-21T23:58:11.841Z,14.40
